WetterOnline ( http://www.wetteronline.de )

Wetter aktuell Gießen

Aktuelles Wetter: Hoherodskopf/Vogelsberg (743m)

6-stündlich | Neueste Meldungen
Ortszeit Temperatur Wetter
Mi, 24.05. 8:00 8.7° C bedeckt
Mi, 24.05. 2:00 9.3° C bedeckt
Di, 23.05. 20:00 16.6° C wolkig
Di, 23.05. 14:00 18.3° C leicht bewölkt
Ortszeit Temperatur Wetter
Mi, 24.05. 10:00 10.8° C wolkig
Mi, 24.05. 9:30 10.1° C wolkig
Mi, 24.05. 9:00 9.8° C leicht bewölkt
Mi, 24.05. 8:30 9.5° C bedeckt
Mi, 24.05. 8:00 8.7° C bedeckt
Mi, 24.05. 7:30 8.1° C bedeckt
Ortszeit Relative Feuchte Sichtweite
Mi, 24.05. 8:00 74% 55 km
Mi, 24.05. 2:00 74% 65 km
Di, 23.05. 20:00 62% 35 km
Di, 23.05. 14:00 65% 21 km
Ortszeit Relative Feuchte Sichtweite
Mi, 24.05. 10:00 75% 27 km
Mi, 24.05. 9:30 73% 40 km
Mi, 24.05. 9:00 73% 55 km
Mi, 24.05. 8:30 73% 40 km
Mi, 24.05. 8:00 74% 55 km
Mi, 24.05. 7:30 77% 60 km
Ortszeit Niederschlagsmenge Niederschlagsart
Mi, 24.05. 8:00 0,0 l/m2 in 12 Std. -
Mi, 24.05. 2:00 0,0 l/m2 in 6 Std. -
Di, 23.05. 20:00 0,0 l/m2 in 12 Std. -
Di, 23.05. 14:00 0,0 l/m2 in 6 Std. -
Ortszeit Niederschlagsmenge Niederschlagsart
Mi, 24.05. 10:00 0,0 l/m2 in 1 Std. -
Mi, 24.05. 9:30 keine Meldung -
Mi, 24.05. 9:00 0,0 l/m2 in 1 Std. -
Mi, 24.05. 8:30 keine Meldung -
Mi, 24.05. 8:00 0,0 l/m2 in 1 Std. -
Mi, 24.05. 7:30 keine Meldung -
Ortszeit Stärke Spitze Richtung
km/h Bft. km/h Grad Sektor
Mi, 24.05. 8:00 15 3 33 300° NW
Mi, 24.05. 2:00 20 4 50 310° NW
Di, 23.05. 20:00 26 4 43 290° W
Di, 23.05. 14:00 20 4 31 240° SW
Ortszeit Stärke Spitze Richtung
km/h Bft. km/h Grad Sektor
Mi, 24.05. 10:00 22 4 32 290° W
Mi, 24.05. 9:30 22 4 32 290° W
Mi, 24.05. 9:00 19 3 30 300° NW
Mi, 24.05. 8:30 18 3 29 290° W
Mi, 24.05. 8:00 15 3 26 300° NW
Mi, 24.05. 7:30 17 3 26 300° NW
Ortszeit Untergrenze Bedeckung Gattung
total tief tief mittel hoch
Mi, 24.05. 8:00 3300 m 8/8 8/8 - - -
Mi, 24.05. 2:00 4500 m 8/8 8/8 - - -
Di, 23.05. 20:00 1470 m 8/8 2/8 - - -
Di, 23.05. 14:00 960 m 7/8 1/8 - - -
Ortszeit Bedeckungsgrad in Achtel und Wolkenuntergrenze
Mi, 24.05. 10:00 3(630m) 8(3300m) 8(9000m)
Mi, 24.05. 9:30 1(570m) 8(3000m)
Mi, 24.05. 9:00 1(510m) 8(3300m) 8(8700m)
Mi, 24.05. 8:30 8(3000m)
Mi, 24.05. 8:00 8(3300m) 8(7500m)
Mi, 24.05. 7:30 8(3300m) 8(8100m)
Ortszeit Luftdruck NN (hPa) Tendenz (hPa in 3 Std.)
Mi, 24.05. 8:00 1024 + 1,1
Mi, 24.05. 2:00 1022 + 0,8
Di, 23.05. 20:00 1017 + 0,4
Di, 23.05. 14:00 1016 - 0,1
Ortszeit Luftdruck NN (hPa) Tendenz (hPa in 3 Std.)
Mi, 24.05. 10:00 1023 + 0,9
Mi, 24.05. 9:30 1023 + 0,9
Mi, 24.05. 9:00 1023 + 1,2
Mi, 24.05. 8:30 1023 + 1,2
Mi, 24.05. 8:00 1024 + 1,1
Mi, 24.05. 7:30 1023 + 0,7
Ortszeit Schneehöhe (cm)
Mi, 24.05. 8:00 -
Mi, 24.05. 2:00 -
Di, 23.05. 20:00 -
Di, 23.05. 14:00 -
Ortszeit Schneehöhe (cm)
Mi, 24.05. 10:00 -
Mi, 24.05. 9:30 -
Mi, 24.05. 9:00 -
Mi, 24.05. 8:30 -
Mi, 24.05. 8:00 -
Mi, 24.05. 7:30 -
Link zu dieser Seite / Seite empfehlen

Das Wetter in ...